sensor_id;sensor_type;location;lat;lon;timestamp;P1;durP1;ratioP1;P2;durP2;ratioP2
22929;SDS011;11630;42.660;23.292;2023-05-07T00:00:13;18.87;;;11.73;;
22929;SDS011;11630;42.660;23.292;2023-05-07T00:02:47;13.53;;;11.13;;
22929;SDS011;11630;42.660;23.292;2023-05-07T00:05:17;13.53;;;10.27;;
22929;SDS011;11630;42.660;23.292;2023-05-07T00:07:48;12.93;;;11.20;;
22929;SDS011;11630;42.660;23.292;2023-05-07T00:10:18;13.47;;;10.93;;
22929;SDS011;11630;42.660;23.292;2023-05-07T00:12:48;16.50;;;11.50;;
22929;SDS011;11630;42.660;23.292;2023-05-07T00:15:19;11.73;;;10.57;;
22929;SDS011;11630;42.660;23.292;2023-05-07T00:17:50;16.63;;;11.00;;
22929;SDS011;11630;42.660;23.292;2023-05-07T00:20:21;16.60;;;10.80;;
22929;SDS011;11630;42.660;23.292;2023-05-07T00:22:51;15.07;;;10.67;;
22929;SDS011;11630;42.660;23.292;2023-05-07T00:25:23;19.60;;;11.27;;
22929;SDS011;11630;42.660;23.292;2023-05-07T00:27:54;18.50;;;11.50;;
22929;SDS011;11630;42.660;23.292;2023-05-07T00:30:25;16.20;;;11.80;;
22929;SDS011;11630;42.660;23.292;2023-05-07T00:32:55;14.50;;;10.90;;
22929;SDS011;11630;42.660;23.292;2023-05-07T00:35:26;17.10;;;11.57;;
22929;SDS011;11630;42.660;23.292;2023-05-07T00:37:58;12.43;;;10.93;;
22929;SDS011;11630;42.660;23.292;2023-05-07T00:40:29;15.93;;;12.77;;
22929;SDS011;11630;42.660;23.292;2023-05-07T00:43:01;15.90;;;11.03;;
22929;SDS011;11630;42.660;23.292;2023-05-07T00:45:32;17.30;;;11.17;;
22929;SDS011;11630;42.660;23.292;2023-05-07T00:48:04;14.67;;;10.67;;
22929;SDS011;11630;42.660;23.292;2023-05-07T00:50:34;12.63;;;10.90;;
22929;SDS011;11630;42.660;23.292;2023-05-07T00:53:05;13.80;;;10.17;;
22929;SDS011;11630;42.660;23.292;2023-05-07T00:55:36;13.23;;;10.17;;
22929;SDS011;11630;42.660;23.292;2023-05-07T00:58:06;17.97;;;9.83;;
22929;SDS011;11630;42.660;23.292;2023-05-07T01:00:37;13.87;;;10.53;;
22929;SDS011;11630;42.660;23.292;2023-05-07T01:03:08;12.07;;;9.37;;
22929;SDS011;11630;42.660;23.292;2023-05-07T01:05:39;13.17;;;9.60;;
22929;SDS011;11630;42.660;23.292;2023-05-07T01:08:10;12.47;;;9.73;;
22929;SDS011;11630;42.660;23.292;2023-05-07T01:10:42;13.53;;;10.70;;
22929;SDS011;11630;42.660;23.292;2023-05-07T01:13:13;14.17;;;10.47;;
22929;SDS011;11630;42.660;23.292;2023-05-07T01:15:45;18.40;;;10.63;;
22929;SDS011;11630;42.660;23.292;2023-05-07T01:18:16;14.77;;;9.90;;
22929;SDS011;11630;42.660;23.292;2023-05-07T01:20:45;14.70;;;10.17;;
22929;SDS011;11630;42.660;23.292;2023-05-07T01:23:17;11.83;;;9.90;;
22929;SDS011;11630;42.660;23.292;2023-05-07T01:25:52;16.57;;;9.00;;
22929;SDS011;11630;42.660;23.292;2023-05-07T01:28:25;14.03;;;9.53;;
22929;SDS011;11630;42.660;23.292;2023-05-07T01:30:58;14.40;;;10.30;;
22929;SDS011;11630;42.660;23.292;2023-05-07T01:33:28;12.60;;;8.93;;
22929;SDS011;11630;42.660;23.292;2023-05-07T01:36:00;13.77;;;9.23;;
22929;SDS011;11630;42.660;23.292;2023-05-07T01:38:31;11.63;;;9.17;;
22929;SDS011;11630;42.660;23.292;2023-05-07T01:41:03;15.70;;;9.97;;
22929;SDS011;11630;42.660;23.292;2023-05-07T01:43:34;14.30;;;10.30;;
22929;SDS011;11630;42.660;23.292;2023-05-07T01:46:05;14.03;;;10.47;;
22929;SDS011;11630;42.660;23.292;2023-05-07T01:48:37;13.07;;;9.93;;
22929;SDS011;11630;42.660;23.292;2023-05-07T01:51:08;14.73;;;9.43;;
22929;SDS011;11630;42.660;23.292;2023-05-07T01:53:39;12.43;;;9.13;;
22929;SDS011;11630;42.660;23.292;2023-05-07T01:56:10;13.23;;;9.33;;
22929;SDS011;11630;42.660;23.292;2023-05-07T01:58:41;13.07;;;8.53;;
22929;SDS011;11630;42.660;23.292;2023-05-07T02:01:13;10.90;;;9.00;;
22929;SDS011;11630;42.660;23.292;2023-05-07T02:03:44;14.10;;;9.73;;
22929;SDS011;11630;42.660;23.292;2023-05-07T02:06:15;12.53;;;9.70;;
22929;SDS011;11630;42.660;23.292;2023-05-07T02:08:47;13.43;;;9.20;;
22929;SDS011;11630;42.660;23.292;2023-05-07T02:11:18;16.40;;;9.93;;
22929;SDS011;11630;42.660;23.292;2023-05-07T02:13:49;10.60;;;9.50;;
22929;SDS011;11630;42.660;23.292;2023-05-07T02:16:20;16.53;;;9.83;;
22929;SDS011;11630;42.660;23.292;2023-05-07T02:18:50;13.47;;;9.47;;
22929;SDS011;11630;42.660;23.292;2023-05-07T02:21:19;9.77;;;8.33;;
22929;SDS011;11630;42.660;23.292;2023-05-07T02:23:54;12.20;;;9.73;;
22929;SDS011;11630;42.660;23.292;2023-05-07T02:26:24;12.83;;;9.53;;
22929;SDS011;11630;42.660;23.292;2023-05-07T02:28:55;10.37;;;9.10;;
22929;SDS011;11630;42.660;23.292;2023-05-07T02:31:25;11.47;;;9.20;;
22929;SDS011;11630;42.660;23.292;2023-05-07T02:33:56;11.40;;;9.00;;
22929;SDS011;11630;42.660;23.292;2023-05-07T02:36:26;14.90;;;9.10;;
22929;SDS011;11630;42.660;23.292;2023-05-07T02:38:57;9.23;;;8.33;;
22929;SDS011;11630;42.660;23.292;2023-05-07T02:41:28;12.50;;;8.80;;
22929;SDS011;11630;42.660;23.292;2023-05-07T02:43:59;12.50;;;9.33;;
22929;SDS011;11630;42.660;23.292;2023-05-07T02:46:29;10.10;;;8.93;;
22929;SDS011;11630;42.660;23.292;2023-05-07T02:49:00;9.83;;;8.83;;
22929;SDS011;11630;42.660;23.292;2023-05-07T02:51:31;14.37;;;9.27;;
22929;SDS011;11630;42.660;23.292;2023-05-07T02:54:04;16.07;;;9.70;;
22929;SDS011;11630;42.660;23.292;2023-05-07T02:56:36;10.47;;;8.23;;
22929;SDS011;11630;42.660;23.292;2023-05-07T02:59:06;12.97;;;8.97;;
22929;SDS011;11630;42.660;23.292;2023-05-07T03:01:37;11.20;;;9.07;;
22929;SDS011;11630;42.660;23.292;2023-05-07T03:04:08;13.53;;;8.17;;
22929;SDS011;11630;42.660;23.292;2023-05-07T03:06:39;11.80;;;8.00;;
22929;SDS011;11630;42.660;23.292;2023-05-07T03:09:08;11.47;;;8.97;;
22929;SDS011;11630;42.660;23.292;2023-05-07T03:11:39;10.37;;;9.27;;
22929;SDS011;11630;42.660;23.292;2023-05-07T03:14:10;14.43;;;9.17;;
22929;SDS011;11630;42.660;23.292;2023-05-07T03:16:40;11.37;;;8.77;;
22929;SDS011;11630;42.660;23.292;2023-05-07T03:19:11;14.07;;;8.77;;
22929;SDS011;11630;42.660;23.292;2023-05-07T03:21:42;13.37;;;9.43;;
22929;SDS011;11630;42.660;23.292;2023-05-07T03:24:13;13.63;;;9.00;;
22929;SDS011;11630;42.660;23.292;2023-05-07T03:26:42;14.67;;;8.63;;
22929;SDS011;11630;42.660;23.292;2023-05-07T03:29:12;13.27;;;8.93;;
22929;SDS011;11630;42.660;23.292;2023-05-07T03:31:44;14.23;;;10.07;;
22929;SDS011;11630;42.660;23.292;2023-05-07T03:34:15;11.40;;;9.67;;
22929;SDS011;11630;42.660;23.292;2023-05-07T03:36:46;10.27;;;9.17;;
22929;SDS011;11630;42.660;23.292;2023-05-07T03:39:17;14.90;;;9.30;;
22929;SDS011;11630;42.660;23.292;2023-05-07T03:41:48;14.43;;;10.47;;
22929;SDS011;11630;42.660;23.292;2023-05-07T03:44:19;16.80;;;9.70;;
22929;SDS011;11630;42.660;23.292;2023-05-07T03:46:49;11.70;;;10.20;;
22929;SDS011;11630;42.660;23.292;2023-05-07T03:49:19;14.20;;;9.10;;
22929;SDS011;11630;42.660;23.292;2023-05-07T03:51:50;10.73;;;9.63;;
22929;SDS011;11630;42.660;23.292;2023-05-07T03:54:21;11.70;;;9.27;;
22929;SDS011;11630;42.660;23.292;2023-05-07T03:56:52;11.43;;;9.73;;
22929;SDS011;11630;42.660;23.292;2023-05-07T03:59:23;16.80;;;9.70;;
22929;SDS011;11630;42.660;23.292;2023-05-07T04:01:54;11.33;;;9.23;;
22929;SDS011;11630;42.660;23.292;2023-05-07T04:04:25;12.87;;;9.40;;
22929;SDS011;11630;42.660;23.292;2023-05-07T04:06:56;16.60;;;10.90;;
22929;SDS011;11630;42.660;23.292;2023-05-07T04:09:27;14.60;;;9.17;;
22929;SDS011;11630;42.660;23.292;2023-05-07T04:11:57;13.03;;;9.57;;
22929;SDS011;11630;42.660;23.292;2023-05-07T04:14:28;13.83;;;9.77;;
22929;SDS011;11630;42.660;23.292;2023-05-07T04:16:59;19.30;;;11.43;;
22929;SDS011;11630;42.660;23.292;2023-05-07T04:19:30;10.50;;;8.73;;
22929;SDS011;11630;42.660;23.292;2023-05-07T04:22:03;14.07;;;9.57;;
22929;SDS011;11630;42.660;23.292;2023-05-07T04:24:34;12.37;;;10.00;;
22929;SDS011;11630;42.660;23.292;2023-05-07T04:27:04;13.93;;;9.93;;
22929;SDS011;11630;42.660;23.292;2023-05-07T04:29:35;12.33;;;10.27;;
22929;SDS011;11630;42.660;23.292;2023-05-07T04:32:06;16.40;;;10.57;;
22929;SDS011;11630;42.660;23.292;2023-05-07T04:34:38;23.23;;;10.50;;
22929;SDS011;11630;42.660;23.292;2023-05-07T04:37:09;13.93;;;9.43;;
22929;SDS011;11630;42.660;23.292;2023-05-07T04:39:39;16.77;;;11.07;;
22929;SDS011;11630;42.660;23.292;2023-05-07T04:42:14;14.97;;;10.67;;
22929;SDS011;11630;42.660;23.292;2023-05-07T04:44:44;15.67;;;11.13;;
22929;SDS011;11630;42.660;23.292;2023-05-07T04:47:15;15.07;;;10.83;;
22929;SDS011;11630;42.660;23.292;2023-05-07T04:49:44;18.13;;;11.90;;
22929;SDS011;11630;42.660;23.292;2023-05-07T04:52:15;13.00;;;11.13;;
22929;SDS011;11630;42.660;23.292;2023-05-07T04:54:46;16.10;;;10.27;;
22929;SDS011;11630;42.660;23.292;2023-05-07T04:57:17;13.17;;;11.00;;
22929;SDS011;11630;42.660;23.292;2023-05-07T04:59:49;15.07;;;10.17;;
22929;SDS011;11630;42.660;23.292;2023-05-07T05:02:20;14.17;;;10.10;;
22929;SDS011;11630;42.660;23.292;2023-05-07T05:04:51;16.23;;;11.13;;
22929;SDS011;11630;42.660;23.292;2023-05-07T05:07:22;16.53;;;10.97;;
22929;SDS011;11630;42.660;23.292;2023-05-07T05:09:53;12.83;;;11.20;;
22929;SDS011;11630;42.660;23.292;2023-05-07T05:12:24;14.27;;;9.83;;
22929;SDS011;11630;42.660;23.292;2023-05-07T05:14:54;12.33;;;9.30;;
22929;SDS011;11630;42.660;23.292;2023-05-07T05:17:25;14.53;;;9.93;;
22929;SDS011;11630;42.660;23.292;2023-05-07T05:19:56;10.97;;;9.63;;
22929;SDS011;11630;42.660;23.292;2023-05-07T05:22:27;15.70;;;10.53;;
22929;SDS011;11630;42.660;23.292;2023-05-07T05:24:58;15.67;;;10.17;;
22929;SDS011;11630;42.660;23.292;2023-05-07T05:27:29;16.43;;;10.13;;
22929;SDS011;11630;42.660;23.292;2023-05-07T05:30:00;10.83;;;9.43;;
22929;SDS011;11630;42.660;23.292;2023-05-07T05:32:30;11.33;;;10.17;;
22929;SDS011;11630;42.660;23.292;2023-05-07T05:35:01;14.70;;;10.70;;
22929;SDS011;11630;42.660;23.292;2023-05-07T05:37:32;17.50;;;11.10;;
22929;SDS011;11630;42.660;23.292;2023-05-07T05:40:03;12.10;;;10.17;;
22929;SDS011;11630;42.660;23.292;2023-05-07T05:42:35;13.40;;;10.10;;
22929;SDS011;11630;42.660;23.292;2023-05-07T05:45:05;12.60;;;9.87;;
22929;SDS011;11630;42.660;23.292;2023-05-07T05:47:37;12.30;;;11.00;;
22929;SDS011;11630;42.660;23.292;2023-05-07T05:50:08;12.10;;;10.00;;
22929;SDS011;11630;42.660;23.292;2023-05-07T05:52:39;12.83;;;9.37;;
22929;SDS011;11630;42.660;23.292;2023-05-07T05:55:08;13.67;;;9.53;;
22929;SDS011;11630;42.660;23.292;2023-05-07T05:57:38;11.73;;;8.97;;
22929;SDS011;11630;42.660;23.292;2023-05-07T06:00:09;12.63;;;9.33;;
22929;SDS011;11630;42.660;23.292;2023-05-07T06:02:43;12.60;;;9.17;;
22929;SDS011;11630;42.660;23.292;2023-05-07T06:05:13;11.80;;;9.83;;
22929;SDS011;11630;42.660;23.292;2023-05-07T06:07:44;11.30;;;9.30;;
22929;SDS011;11630;42.660;23.292;2023-05-07T06:10:15;14.13;;;9.77;;
22929;SDS011;11630;42.660;23.292;2023-05-07T06:12:45;15.73;;;9.00;;
22929;SDS011;11630;42.660;23.292;2023-05-07T06:15:16;12.07;;;9.47;;
22929;SDS011;11630;42.660;23.292;2023-05-07T06:17:47;17.73;;;8.43;;
22929;SDS011;11630;42.660;23.292;2023-05-07T06:20:18;9.57;;;8.53;;
22929;SDS011;11630;42.660;23.292;2023-05-07T06:22:49;15.50;;;7.27;;
22929;SDS011;11630;42.660;23.292;2023-05-07T06:25:20;8.60;;;7.77;;
22929;SDS011;11630;42.660;23.292;2023-05-07T06:27:51;8.67;;;7.77;;
22929;SDS011;11630;42.660;23.292;2023-05-07T06:30:21;15.83;;;7.37;;
22929;SDS011;11630;42.660;23.292;2023-05-07T06:32:52;30.73;;;9.50;;
22929;SDS011;11630;42.660;23.292;2023-05-07T06:35:24;12.57;;;8.20;;
22929;SDS011;11630;42.660;23.292;2023-05-07T06:37:55;13.23;;;8.50;;
22929;SDS011;11630;42.660;23.292;2023-05-07T06:40:24;9.83;;;7.47;;
22929;SDS011;11630;42.660;23.292;2023-05-07T06:42:55;11.10;;;7.77;;
22929;SDS011;11630;42.660;23.292;2023-05-07T06:45:26;12.23;;;8.00;;
22929;SDS011;11630;42.660;23.292;2023-05-07T06:47:57;12.73;;;8.43;;
22929;SDS011;11630;42.660;23.292;2023-05-07T06:50:28;11.80;;;7.23;;
22929;SDS011;11630;42.660;23.292;2023-05-07T06:52:58;12.60;;;8.70;;
22929;SDS011;11630;42.660;23.292;2023-05-07T06:55:30;14.33;;;8.73;;
22929;SDS011;11630;42.660;23.292;2023-05-07T06:58:00;8.30;;;7.50;;
22929;SDS011;11630;42.660;23.292;2023-05-07T07:00:31;10.43;;;7.60;;
22929;SDS011;11630;42.660;23.292;2023-05-07T07:03:02;8.73;;;7.83;;
22929;SDS011;11630;42.660;23.292;2023-05-07T07:05:33;9.10;;;7.50;;
22929;SDS011;11630;42.660;23.292;2023-05-07T07:08:03;12.63;;;7.83;;
22929;SDS011;11630;42.660;23.292;2023-05-07T07:10:34;8.47;;;7.40;;
22929;SDS011;11630;42.660;23.292;2023-05-07T07:13:05;9.67;;;8.00;;
22929;SDS011;11630;42.660;23.292;2023-05-07T07:15:35;12.77;;;8.13;;
22929;SDS011;11630;42.660;23.292;2023-05-07T07:18:06;9.20;;;8.03;;
22929;SDS011;11630;42.660;23.292;2023-05-07T07:20:37;12.80;;;8.80;;
22929;SDS011;11630;42.660;23.292;2023-05-07T07:23:07;10.63;;;7.90;;
22929;SDS011;11630;42.660;23.292;2023-05-07T07:25:39;12.87;;;8.40;;
22929;SDS011;11630;42.660;23.292;2023-05-07T07:28:10;11.87;;;8.13;;
22929;SDS011;11630;42.660;23.292;2023-05-07T07:30:40;9.33;;;8.40;;
22929;SDS011;11630;42.660;23.292;2023-05-07T07:33:10;11.73;;;9.10;;
22929;SDS011;11630;42.660;23.292;2023-05-07T07:35:41;11.00;;;8.33;;
22929;SDS011;11630;42.660;23.292;2023-05-07T07:38:11;13.03;;;9.47;;
22929;SDS011;11630;42.660;23.292;2023-05-07T07:40:41;10.77;;;8.40;;
22929;SDS011;11630;42.660;23.292;2023-05-07T07:43:12;10.63;;;8.17;;
22929;SDS011;11630;42.660;23.292;2023-05-07T07:45:43;12.27;;;7.27;;
22929;SDS011;11630;42.660;23.292;2023-05-07T07:48:14;11.10;;;7.60;;
22929;SDS011;11630;42.660;23.292;2023-05-07T07:50:44;11.63;;;7.60;;
22929;SDS011;11630;42.660;23.292;2023-05-07T07:53:15;9.27;;;7.40;;
22929;SDS011;11630;42.660;23.292;2023-05-07T07:55:46;9.30;;;8.30;;
22929;SDS011;11630;42.660;23.292;2023-05-07T07:58:17;10.83;;;7.50;;
22929;SDS011;11630;42.660;23.292;2023-05-07T08:00:48;9.67;;;7.53;;
22929;SDS011;11630;42.660;23.292;2023-05-07T08:03:18;9.77;;;7.60;;
22929;SDS011;11630;42.660;23.292;2023-05-07T08:05:49;10.40;;;7.37;;
22929;SDS011;11630;42.660;23.292;2023-05-07T08:08:21;13.57;;;7.63;;
22929;SDS011;11630;42.660;23.292;2023-05-07T08:10:51;9.83;;;7.87;;
22929;SDS011;11630;42.660;23.292;2023-05-07T08:13:22;11.27;;;7.63;;
22929;SDS011;11630;42.660;23.292;2023-05-07T08:15:53;10.33;;;7.80;;
22929;SDS011;11630;42.660;23.292;2023-05-07T08:18:25;13.97;;;8.47;;
22929;SDS011;11630;42.660;23.292;2023-05-07T08:20:56;10.27;;;8.00;;
22929;SDS011;11630;42.660;23.292;2023-05-07T08:23:26;10.67;;;7.20;;
22929;SDS011;11630;42.660;23.292;2023-05-07T08:25:57;10.23;;;8.50;;
22929;SDS011;11630;42.660;23.292;2023-05-07T08:28:28;8.80;;;6.70;;
22929;SDS011;11630;42.660;23.292;2023-05-07T08:30:58;12.27;;;6.87;;
22929;SDS011;11630;42.660;23.292;2023-05-07T08:33:29;15.97;;;7.53;;
22929;SDS011;11630;42.660;23.292;2023-05-07T08:36:00;12.20;;;7.30;;
22929;SDS011;11630;42.660;23.292;2023-05-07T08:38:31;8.37;;;6.37;;
22929;SDS011;11630;42.660;23.292;2023-05-07T08:41:02;11.80;;;6.77;;
22929;SDS011;11630;42.660;23.292;2023-05-07T08:43:33;12.17;;;7.50;;
22929;SDS011;11630;42.660;23.292;2023-05-07T08:46:05;8.77;;;7.30;;
22929;SDS011;11630;42.660;23.292;2023-05-07T08:48:36;9.80;;;7.50;;
22929;SDS011;11630;42.660;23.292;2023-05-07T08:51:08;12.07;;;8.87;;
22929;SDS011;11630;42.660;23.292;2023-05-07T08:53:40;7.43;;;6.73;;
22929;SDS011;11630;42.660;23.292;2023-05-07T08:56:10;10.80;;;6.57;;
22929;SDS011;11630;42.660;23.292;2023-05-07T08:58:42;9.50;;;6.43;;
22929;SDS011;11630;42.660;23.292;2023-05-07T09:01:15;8.47;;;6.37;;
22929;SDS011;11630;42.660;23.292;2023-05-07T09:03:46;8.80;;;5.90;;
22929;SDS011;11630;42.660;23.292;2023-05-07T09:06:17;8.37;;;6.23;;
22929;SDS011;11630;42.660;23.292;2023-05-07T09:08:51;7.70;;;6.53;;
22929;SDS011;11630;42.660;23.292;2023-05-07T09:11:22;12.63;;;6.23;;
22929;SDS011;11630;42.660;23.292;2023-05-07T09:13:55;12.13;;;5.77;;
22929;SDS011;11630;42.660;23.292;2023-05-07T09:16:29;8.83;;;5.93;;
22929;SDS011;11630;42.660;23.292;2023-05-07T09:18:59;7.17;;;5.83;;
22929;SDS011;11630;42.660;23.292;2023-05-07T09:21:29;12.47;;;5.60;;
22929;SDS011;11630;42.660;23.292;2023-05-07T09:24:00;11.30;;;4.93;;
22929;SDS011;11630;42.660;23.292;2023-05-07T09:26:31;9.20;;;5.30;;
22929;SDS011;11630;42.660;23.292;2023-05-07T09:29:02;9.73;;;6.27;;
22929;SDS011;11630;42.660;23.292;2023-05-07T09:31:36;8.37;;;4.77;;
22929;SDS011;11630;42.660;23.292;2023-05-07T09:34:07;5.40;;;4.90;;
22929;SDS011;11630;42.660;23.292;2023-05-07T09:36:38;9.57;;;5.33;;
22929;SDS011;11630;42.660;23.292;2023-05-07T09:39:08;6.93;;;5.40;;
22929;SDS011;11630;42.660;23.292;2023-05-07T09:41:43;7.37;;;5.30;;
22929;SDS011;11630;42.660;23.292;2023-05-07T09:44:17;8.73;;;5.10;;
22929;SDS011;11630;42.660;23.292;2023-05-07T09:46:51;11.27;;;4.93;;
22929;SDS011;11630;42.660;23.292;2023-05-07T09:49:21;6.57;;;4.57;;
22929;SDS011;11630;42.660;23.292;2023-05-07T09:51:52;8.17;;;4.77;;
22929;SDS011;11630;42.660;23.292;2023-05-07T09:54:23;9.67;;;4.90;;
22929;SDS011;11630;42.660;23.292;2023-05-07T09:56:57;6.47;;;4.77;;
22929;SDS011;11630;42.660;23.292;2023-05-07T09:59:29;7.60;;;4.87;;
22929;SDS011;11630;42.660;23.292;2023-05-07T10:02:01;5.00;;;4.53;;
22929;SDS011;11630;42.660;23.292;2023-05-07T10:04:36;8.60;;;4.80;;
22929;SDS011;11630;42.660;23.292;2023-05-07T10:07:07;34.40;;;6.37;;
22929;SDS011;11630;42.660;23.292;2023-05-07T10:09:39;6.40;;;3.80;;
22929;SDS011;11630;42.660;23.292;2023-05-07T10:12:11;6.87;;;3.80;;
22929;SDS011;11630;42.660;23.292;2023-05-07T10:14:41;5.87;;;3.53;;
22929;SDS011;11630;42.660;23.292;2023-05-07T10:17:12;4.57;;;4.17;;
22929;SDS011;11630;42.660;23.292;2023-05-07T10:19:46;4.63;;;3.77;;
22929;SDS011;11630;42.660;23.292;2023-05-07T10:22:20;8.33;;;4.53;;
22929;SDS011;11630;42.660;23.292;2023-05-07T10:24:53;6.20;;;4.40;;
22929;SDS011;11630;42.660;23.292;2023-05-07T10:27:25;6.13;;;4.07;;
22929;SDS011;11630;42.660;23.292;2023-05-07T10:30:15;6.83;;;5.47;;
22929;SDS011;11630;42.660;23.292;2023-05-07T10:32:48;8.03;;;4.63;;
22929;SDS011;11630;42.660;23.292;2023-05-07T10:35:26;4.47;;;3.77;;
22929;SDS011;11630;42.660;23.292;2023-05-07T10:37:53;4.93;;;4.33;;
22929;SDS011;11630;42.660;23.292;2023-05-07T10:40:24;5.87;;;4.80;;
22929;SDS011;11630;42.660;23.292;2023-05-07T10:42:58;9.97;;;5.43;;
22929;SDS011;11630;42.660;23.292;2023-05-07T10:45:31;7.37;;;4.90;;
22929;SDS011;11630;42.660;23.292;2023-05-07T10:48:24;7.73;;;4.37;;
22929;SDS011;11630;42.660;23.292;2023-05-07T10:50:38;7.27;;;4.47;;
22929;SDS011;11630;42.660;23.292;2023-05-07T10:53:22;6.00;;;5.00;;
22929;SDS011;11630;42.660;23.292;2023-05-07T10:56:07;6.33;;;5.13;;
22929;SDS011;11630;42.660;23.292;2023-05-07T10:58:40;4.93;;;4.33;;
22929;SDS011;11630;42.660;23.292;2023-05-07T11:01:11;4.70;;;4.30;;
22929;SDS011;11630;42.660;23.292;2023-05-07T11:06:55;6.67;;;4.30;;
22929;SDS011;11630;42.660;23.292;2023-05-07T11:09:50;7.03;;;3.97;;
22929;SDS011;11630;42.660;23.292;2023-05-07T11:12:15;7.57;;;4.57;;
22929;SDS011;11630;42.660;23.292;2023-05-07T11:14:46;4.97;;;3.80;;
22929;SDS011;11630;42.660;23.292;2023-05-07T11:17:17;6.53;;;4.13;;
22929;SDS011;11630;42.660;23.292;2023-05-07T11:19:54;7.17;;;3.67;;
22929;SDS011;11630;42.660;23.292;2023-05-07T11:22:35;7.23;;;4.57;;
22929;SDS011;11630;42.660;23.292;2023-05-07T11:25:06;6.47;;;3.90;;
22929;SDS011;11630;42.660;23.292;2023-05-07T11:27:37;5.13;;;4.47;;
22929;SDS011;11630;42.660;23.292;2023-05-07T11:30:07;4.30;;;3.90;;
22929;SDS011;11630;42.660;23.292;2023-05-07T11:32:39;4.87;;;3.83;;
22929;SDS011;11630;42.660;23.292;2023-05-07T11:35:10;12.07;;;3.77;;
22929;SDS011;11630;42.660;23.292;2023-05-07T11:37:42;5.70;;;3.93;;
22929;SDS011;11630;42.660;23.292;2023-05-07T11:40:15;8.67;;;3.90;;
22929;SDS011;11630;42.660;23.292;2023-05-07T11:42:45;4.83;;;4.27;;
22929;SDS011;11630;42.660;23.292;2023-05-07T11:45:22;4.47;;;4.07;;
22929;SDS011;11630;42.660;23.292;2023-05-07T11:47:48;8.73;;;4.50;;
22929;SDS011;11630;42.660;23.292;2023-05-07T11:50:18;4.70;;;4.03;;
22929;SDS011;11630;42.660;23.292;2023-05-07T11:52:51;5.60;;;3.93;;
22929;SDS011;11630;42.660;23.292;2023-05-07T11:55:23;4.47;;;3.70;;
22929;SDS011;11630;42.660;23.292;2023-05-07T11:57:54;8.40;;;3.80;;
22929;SDS011;11630;42.660;23.292;2023-05-07T12:00:25;4.17;;;3.57;;
22929;SDS011;11630;42.660;23.292;2023-05-07T12:02:56;7.55;;;4.20;;
22929;SDS011;11630;42.660;23.292;2023-05-07T12:05:28;5.17;;;3.83;;
22929;SDS011;11630;42.660;23.292;2023-05-07T12:07:59;7.97;;;3.50;;
22929;SDS011;11630;42.660;23.292;2023-05-07T12:10:31;6.33;;;3.50;;
22929;SDS011;11630;42.660;23.292;2023-05-07T12:13:02;8.50;;;3.60;;
22929;SDS011;11630;42.660;23.292;2023-05-07T12:15:34;6.30;;;3.30;;
22929;SDS011;11630;42.660;23.292;2023-05-07T12:18:05;3.17;;;2.87;;
22929;SDS011;11630;42.660;23.292;2023-05-07T12:20:36;3.13;;;2.90;;
22929;SDS011;11630;42.660;23.292;2023-05-07T12:23:07;8.77;;;3.03;;
22929;SDS011;11630;42.660;23.292;2023-05-07T12:25:38;2.80;;;2.60;;
22929;SDS011;11630;42.660;23.292;2023-05-07T12:28:12;3.43;;;3.10;;
22929;SDS011;11630;42.660;23.292;2023-05-07T12:30:45;7.90;;;3.10;;
22929;SDS011;11630;42.660;23.292;2023-05-07T12:33:17;6.87;;;3.90;;
22929;SDS011;11630;42.660;23.292;2023-05-07T12:35:48;4.33;;;3.93;;
22929;SDS011;11630;42.660;23.292;2023-05-07T12:38:18;5.60;;;3.07;;
22929;SDS011;11630;42.660;23.292;2023-05-07T12:40:53;6.90;;;3.90;;
22929;SDS011;11630;42.660;23.292;2023-05-07T12:43:24;6.67;;;3.00;;
22929;SDS011;11630;42.660;23.292;2023-05-07T12:45:57;7.27;;;3.13;;
22929;SDS011;11630;42.660;23.292;2023-05-07T12:48:31;6.73;;;3.00;;
22929;SDS011;11630;42.660;23.292;2023-05-07T12:51:02;3.50;;;3.20;;
22929;SDS011;11630;42.660;23.292;2023-05-07T12:53:39;4.00;;;3.35;;
22929;SDS011;11630;42.660;23.292;2023-05-07T12:56:11;2.97;;;2.77;;
22929;SDS011;11630;42.660;23.292;2023-05-07T12:58:42;4.20;;;3.70;;
22929;SDS011;11630;42.660;23.292;2023-05-07T13:01:13;2.87;;;2.67;;
22929;SDS011;11630;42.660;23.292;2023-05-07T13:03:47;8.83;;;4.42;;
22929;SDS011;11630;42.660;23.292;2023-05-07T13:06:17;3.27;;;2.87;;
22929;SDS011;11630;42.660;23.292;2023-05-07T13:08:48;4.22;;;2.95;;
22929;SDS011;11630;42.660;23.292;2023-05-07T13:11:19;3.67;;;3.37;;
22929;SDS011;11630;42.660;23.292;2023-05-07T13:13:50;6.60;;;2.93;;
22929;SDS011;11630;42.660;23.292;2023-05-07T13:16:21;3.98;;;2.87;;
22929;SDS011;11630;42.660;23.292;2023-05-07T13:18:51;3.57;;;2.93;;
22929;SDS011;11630;42.660;23.292;2023-05-07T13:21:22;3.02;;;2.75;;
22929;SDS011;11630;42.660;23.292;2023-05-07T13:23:53;3.20;;;2.90;;
22929;SDS011;11630;42.660;23.292;2023-05-07T13:26:24;3.05;;;2.67;;
22929;SDS011;11630;42.660;23.292;2023-05-07T13:28:55;3.52;;;2.70;;
22929;SDS011;11630;42.660;23.292;2023-05-07T13:31:26;4.28;;;3.00;;
22929;SDS011;11630;42.660;23.292;2023-05-07T13:33:57;5.70;;;2.77;;
22929;SDS011;11630;42.660;23.292;2023-05-07T13:36:28;5.53;;;3.33;;
22929;SDS011;11630;42.660;23.292;2023-05-07T13:38:59;5.12;;;2.70;;
22929;SDS011;11630;42.660;23.292;2023-05-07T13:41:29;14.83;;;2.90;;
22929;SDS011;11630;42.660;23.292;2023-05-07T13:44:00;3.72;;;3.08;;
22929;SDS011;11630;42.660;23.292;2023-05-07T13:46:31;4.37;;;3.00;;
22929;SDS011;11630;42.660;23.292;2023-05-07T13:49:02;5.35;;;3.20;;
22929;SDS011;11630;42.660;23.292;2023-05-07T13:51:33;3.00;;;2.80;;
22929;SDS011;11630;42.660;23.292;2023-05-07T13:54:04;3.37;;;3.08;;
22929;SDS011;11630;42.660;23.292;2023-05-07T13:56:35;4.15;;;3.08;;
22929;SDS011;11630;42.660;23.292;2023-05-07T13:59:05;6.12;;;2.95;;
22929;SDS011;11630;42.660;23.292;2023-05-07T14:01:36;4.33;;;2.85;;
22929;SDS011;11630;42.660;23.292;2023-05-07T14:04:06;5.55;;;3.15;;
22929;SDS011;11630;42.660;23.292;2023-05-07T14:06:36;3.12;;;2.83;;
22929;SDS011;11630;42.660;23.292;2023-05-07T14:09:07;4.95;;;2.87;;
22929;SDS011;11630;42.660;23.292;2023-05-07T14:11:39;3.92;;;3.00;;
22929;SDS011;11630;42.660;23.292;2023-05-07T14:14:11;6.42;;;3.00;;
22929;SDS011;11630;42.660;23.292;2023-05-07T14:16:41;5.00;;;3.17;;
22929;SDS011;11630;42.660;23.292;2023-05-07T14:19:14;9.33;;;2.60;;
22929;SDS011;11630;42.660;23.292;2023-05-07T14:21:44;4.15;;;3.00;;
22929;SDS011;11630;42.660;23.292;2023-05-07T14:24:15;6.27;;;2.80;;
22929;SDS011;11630;42.660;23.292;2023-05-07T14:26:46;4.50;;;2.83;;
22929;SDS011;11630;42.660;23.292;2023-05-07T14:29:16;3.57;;;2.87;;
22929;SDS011;11630;42.660;23.292;2023-05-07T14:31:46;9.13;;;3.07;;
22929;SDS011;11630;42.660;23.292;2023-05-07T14:34:17;2.90;;;2.70;;
22929;SDS011;11630;42.660;23.292;2023-05-07T14:36:48;3.50;;;2.87;;
22929;SDS011;11630;42.660;23.292;2023-05-07T14:39:19;4.30;;;3.07;;
22929;SDS011;11630;42.660;23.292;2023-05-07T14:41:50;3.10;;;2.70;;
22929;SDS011;11630;42.660;23.292;2023-05-07T14:44:21;3.70;;;3.27;;
22929;SDS011;11630;42.660;23.292;2023-05-07T14:46:51;5.10;;;2.80;;
22929;SDS011;11630;42.660;23.292;2023-05-07T14:49:22;10.20;;;4.33;;
22929;SDS011;11630;42.660;23.292;2023-05-07T14:51:53;4.07;;;3.20;;